Lodge, South Carolina
Current Conditions -  °F | °C
As of 9:15 AM on Thursday 27 Nov 2014 (Local Time) from KAQX Reporting Station
Clear Clear  
Wind Chill: 46°   Ceiling: Unl
Heat Index: 48°   Visibility: 10mi
Dew Point: 34°   Wind: 6mph
Humidity: 57%   Direction: NA
Pressure: 30.16"   Gusts: 16mph
Location:  33.07°N, 80.95°W
Report Text: KAQX 271415Z AUTO VRB05G14KT 10SM CLR 09/01 A3016 RMK AO2
Loading
Personal Weather Stations






























Interactive Weather Map New forecast layout! Learn more

10-Day Weather Forecast

Advertisements
Track Severe Weather on mobile